KSEAKNOW

Guest
Details From KSEA - Seattle Tacoma Intl
To KNOW - Port Angeles Cgas
Flight Number -
Tags Generated
Created
Modified
Stats Distance 60 nm / 112 km
Max Altitude 0 ft / 0 m
Waypoints 2
Social Downloads 6
Likes 0
Share VATSIM

Download

Looking for another format? Having issues loading an existing format? Contact us
Advertisement - Login to hide

Notes

Generated

Route

KSEA KNOW

ID Type Via Altitude Latitude Longitude Leg Dist Tot Dist Heading (true) Name
O KSEA APT - 0 ft / 0 m 47.46383˚ -122.31786˚ - 0 nm - -
O KNOW APT - 0 ft / 0 m 48.14167˚ -123.42315˚ 60 nm 60 nm 313° / 312° -

Altitude Profile

Advertisement - Login to hide

KSEA

Details ICAO KSEA (SEA)
Name Seattle Tacoma Intl
Region United States
Timezone America/Los_Angeles (UTC-8.0)
Stats Elevation 433 ft / 132 m (AMSL)
Location 47.450188° -122.312320°
Runways 3
Magnetic Variation 15.686° E

METAR

KSEA 111453Z 16005KT 7SM BCFG FEW001 M01/M01 A3033 RMK AO2 SLP279 T10061011 50003

Decode

TAF

KSEA 111247Z 1113/1218 00000KT 1/4SM FG VV001 FM111700 00000KT 3SM BR SCT002 FM111800 17004KT P6SM SKC FM120400 14005KT P6SM BKN200 FM121100 16005KT P6SM BKN080

Decode

Departure Runways

ID Width Length Bearing (true) Bearing (mag) Surface Threshold Offset Overrun Length
16C 151 ft / 46 m 9,429 ft / 2,874 m 180.34° 164.65° Concrete 0 ft / 0 m 223 ft / 68 m
16L 151 ft / 46 m 11,904 ft / 3,628 m 180.34° 164.65° Concrete 0 ft / 0 m 151 ft / 46 m
16R 151 ft / 46 m 8,503 ft / 2,592 m 180.34° 164.65° Concrete 0 ft / 0 m 164 ft / 50 m
34C 151 ft / 46 m 9,429 ft / 2,874 m 0.34° 344.65° Concrete 0 ft / 0 m 394 ft / 120 m
34L 151 ft / 46 m 8,503 ft / 2,592 m 0.34° 344.65° Concrete 0 ft / 0 m 394 ft / 120 m
34R 151 ft / 46 m 11,904 ft / 3,628 m 0.34° 344.65° Concrete 0 ft / 0 m 400 ft / 122 m

KNOW

Details ICAO KNOW (NOW)
Name PORT ANGELES CGAS
Region United States
Timezone Unknown (UTC+0.0)
Stats Elevation 13 ft / 4 m (AMSL)
Location 48.141293° -123.413955°
Runways 1
Magnetic Variation 16.045° E

METAR

KNOW 111515Z AUTO 10004KT 10SM CLR 04/03 A3032 RMK AO2 T00360025

Decode

TAF

Not found

Destination Runways

ID Width Length Bearing (true) Bearing (mag) Surface Threshold Offset Overrun Length
07 151 ft / 46 m 4,488 ft / 1,368 m 93.55° 77.50° Asphalt 0 ft / 0 m 0 ft / 0 m
25 151 ft / 46 m 4,488 ft / 1,368 m 273.57° 257.52° Asphalt 0 ft / 0 m 0 ft / 0 m

Popular Alternatives